createdAt,value
2023-02-21T00:00:09.532Z,500.00
2023-02-21T00:01:09.501Z,502.00
2023-02-21T00:02:09.499Z,503.00
2023-02-21T00:03:09.457Z,501.00
2023-02-21T00:04:09.439Z,500.00
2023-02-21T00:05:09.425Z,498.00
2023-02-21T00:06:09.390Z,499.00
2023-02-21T00:07:09.346Z,500.00
2023-02-21T00:08:09.310Z,500.00
2023-02-21T00:09:09.286Z,500.00
2023-02-21T00:10:09.248Z,502.00
2023-02-21T00:11:09.198Z,498.00
2023-02-21T00:12:09.195Z,497.00
2023-02-21T00:13:09.135Z,496.00
2023-02-21T00:14:09.103Z,496.00
2023-02-21T00:15:09.061Z,497.00
2023-02-21T00:16:09.109Z,499.00
2023-02-21T00:17:08.987Z,499.00
2023-02-21T00:18:08.961Z,499.00
2023-02-21T00:19:08.919Z,499.00
2023-02-21T00:20:08.877Z,501.00
2023-02-21T00:21:08.843Z,501.00
2023-02-21T00:22:08.797Z,499.00
2023-02-21T00:23:08.765Z,496.00
2023-02-21T00:24:08.732Z,493.00
2023-02-21T00:25:08.701Z,496.00
2023-02-21T00:26:08.666Z,498.00
2023-02-21T00:27:08.636Z,498.00
2023-02-21T00:28:08.589Z,500.00
2023-02-21T00:29:08.571Z,501.00
2023-02-21T00:30:08.629Z,502.00
2023-02-21T00:31:08.537Z,501.00
2023-02-21T00:32:08.479Z,500.00
2023-02-21T00:33:08.622Z,499.00
2023-02-21T00:34:08.408Z,498.00
2023-02-21T00:35:08.375Z,498.00
2023-02-21T00:36:08.324Z,494.00
2023-02-21T00:37:08.307Z,494.00
2023-02-21T00:38:08.275Z,495.00
2023-02-21T00:39:08.250Z,496.00
2023-02-21T00:40:08.223Z,494.00
2023-02-21T00:41:08.197Z,492.00
2023-02-21T00:42:08.175Z,491.00
2023-02-21T00:43:08.153Z,491.00
2023-02-21T00:44:08.152Z,491.00
2023-02-21T00:45:08.096Z,492.00
2023-02-21T00:46:08.151Z,492.00
2023-02-21T00:47:08.037Z,492.00
2023-02-21T00:48:08.001Z,493.00
2023-02-21T00:49:07.981Z,493.00
2023-02-21T00:50:07.941Z,493.00
2023-02-21T00:51:07.921Z,491.00
2023-02-21T00:52:07.872Z,491.00
2023-02-21T00:53:07.853Z,492.00
2023-02-21T00:54:07.805Z,492.00
2023-02-21T00:55:07.779Z,493.00
2023-02-21T00:56:07.739Z,492.00
2023-02-21T00:57:07.703Z,491.00
2023-02-21T00:58:07.665Z,493.00
2023-02-21T00:59:07.631Z,494.00
2023-02-21T01:00:07.594Z,492.00
2023-02-21T01:01:07.599Z,492.00
2023-02-21T01:02:07.530Z,493.00
2023-02-21T01:03:07.515Z,495.00
2023-02-21T01:04:07.483Z,493.00
2023-02-21T01:05:07.448Z,493.00
2023-02-21T01:06:07.436Z,493.00
2023-02-21T01:07:07.387Z,495.00
2023-02-21T01:08:07.361Z,497.00
2023-02-21T01:09:07.326Z,496.00
2023-02-21T01:10:07.292Z,496.00
2023-02-21T01:11:07.261Z,495.00
2023-02-21T01:12:07.232Z,494.00
2023-02-21T01:13:07.213Z,496.00
2023-02-21T01:14:07.177Z,495.00
2023-02-21T01:15:07.163Z,494.00
2023-02-21T01:16:07.196Z,492.00
2023-02-21T01:17:12.842Z,491.00
2023-02-21T01:18:08.075Z,490.00
2023-02-21T01:19:07.056Z,490.00
2023-02-21T01:20:07.021Z,493.00
2023-02-21T01:21:06.993Z,492.00
2023-02-21T01:22:06.970Z,492.00
2023-02-21T01:23:06.951Z,490.00
2023-02-21T01:24:06.946Z,488.00
2023-02-21T01:25:06.896Z,489.00
2023-02-21T01:26:06.882Z,490.00
2023-02-21T01:27:06.846Z,488.00
2023-02-21T01:28:06.808Z,488.00
2023-02-21T01:29:06.778Z,486.00
2023-02-21T01:30:06.789Z,487.00
2023-02-21T01:31:06.757Z,487.00
2023-02-21T01:32:06.702Z,488.00
2023-02-21T01:33:06.637Z,490.00
2023-02-21T01:34:06.598Z,487.00
2023-02-21T01:35:06.573Z,489.00
2023-02-21T01:36:06.537Z,488.00
2023-02-21T01:37:06.506Z,485.00
2023-02-21T01:38:06.474Z,484.00
2023-02-21T01:39:06.444Z,484.00
2023-02-21T01:40:06.410Z,483.00
2023-02-21T01:41:06.387Z,481.00
2023-02-21T01:42:06.342Z,478.00
2023-02-21T01:43:06.314Z,478.00
2023-02-21T01:44:06.291Z,477.00
2023-02-21T01:45:06.289Z,475.00
2023-02-21T01:46:06.255Z,475.00
2023-02-21T01:47:06.221Z,476.00
2023-02-21T01:48:06.190Z,474.00
2023-02-21T01:49:06.161Z,474.00
2023-02-21T01:50:06.138Z,473.00
2023-02-21T01:51:06.093Z,475.00
2023-02-21T01:52:06.064Z,475.00
2023-02-21T01:53:06.022Z,474.00
2023-02-21T01:54:05.984Z,475.00
2023-02-21T01:55:06.059Z,473.00
2023-02-21T01:56:05.902Z,473.00
2023-02-21T01:57:05.872Z,473.00
2023-02-21T01:58:05.839Z,474.00
2023-02-21T01:59:05.794Z,473.00
2023-02-21T02:00:05.778Z,471.00
2023-02-21T02:01:05.726Z,471.00
2023-02-21T02:02:05.694Z,470.00
2023-02-21T02:03:05.669Z,472.00
2023-02-21T02:04:06.877Z,473.00
2023-02-21T02:05:05.596Z,473.00
2023-02-21T02:06:05.568Z,475.00
2023-02-21T02:07:05.534Z,476.00
2023-02-21T02:08:05.506Z,476.00
2023-02-21T02:09:05.475Z,476.00
2023-02-21T02:10:05.442Z,475.00
2023-02-21T02:11:05.415Z,473.00
2023-02-21T02:12:05.373Z,472.00
2023-02-21T02:13:05.332Z,472.00
2023-02-21T02:14:05.293Z,471.00
2023-02-21T02:15:05.333Z,469.00
2023-02-21T02:16:05.268Z,468.00
2023-02-21T02:17:05.183Z,469.00
2023-02-21T02:18:05.135Z,469.00
2023-02-21T02:19:05.103Z,470.00
2023-02-21T02:20:05.070Z,469.00
2023-02-21T02:21:05.039Z,467.00
2023-02-21T02:22:05.028Z,468.00
2023-02-21T02:23:04.981Z,470.00
2023-02-21T02:24:04.943Z,470.00
2023-02-21T02:25:04.913Z,470.00
2023-02-21T02:26:04.873Z,470.00
2023-02-21T02:27:04.842Z,471.00
2023-02-21T02:28:04.808Z,471.00
2023-02-21T02:29:04.791Z,470.00
2023-02-21T02:30:04.819Z,469.00
2023-02-21T02:31:04.789Z,468.00
2023-02-21T02:32:04.880Z,467.00
2023-02-21T02:33:04.677Z,468.00
2023-02-21T02:34:04.651Z,472.00
2023-02-21T02:35:04.627Z,469.00
2023-02-21T02:36:04.596Z,468.00
2023-02-21T02:37:04.564Z,468.00
2023-02-21T02:38:04.560Z,469.00
2023-02-21T02:39:04.507Z,471.00
2023-02-21T02:40:04.473Z,473.00
2023-02-21T02:41:04.461Z,471.00
2023-02-21T02:42:04.409Z,467.00
2023-02-21T02:43:04.374Z,467.00
2023-02-21T02:44:04.332Z,466.00
2023-02-21T02:45:04.300Z,466.00
2023-02-21T02:46:04.298Z,468.00
2023-02-21T02:47:04.257Z,472.00
2023-02-21T02:48:04.206Z,471.00
2023-02-21T02:49:04.177Z,470.00
2023-02-21T02:50:04.146Z,469.00
2023-02-21T02:51:04.208Z,467.00
2023-02-21T02:52:04.094Z,468.00
2023-02-21T02:53:04.071Z,470.00
2023-02-21T02:54:04.039Z,469.00
2023-02-21T02:55:04.040Z,469.00
2023-02-21T02:56:04.005Z,468.00
2023-02-21T02:57:03.976Z,467.00
2023-02-21T02:58:03.929Z,465.00
2023-02-21T02:59:03.904Z,465.00
2023-02-21T03:00:03.885Z,467.00
2023-02-21T03:01:03.842Z,466.00
2023-02-21T03:02:03.819Z,464.00
2023-02-21T03:03:03.780Z,463.00
2023-02-21T03:04:03.777Z,461.00
2023-02-21T03:05:03.720Z,461.00
2023-02-21T03:06:03.709Z,461.00
2023-02-21T03:07:03.678Z,462.00
2023-02-21T03:08:03.645Z,462.00
2023-02-21T03:09:03.620Z,464.00
2023-02-21T03:10:03.590Z,466.00
2023-02-21T03:11:03.565Z,463.00
2023-02-21T03:12:03.541Z,461.00
2023-02-21T03:13:03.511Z,463.00
2023-02-21T03:14:03.471Z,458.00
2023-02-21T03:15:03.451Z,459.00
2023-02-21T03:16:03.425Z,459.00
2023-02-21T03:17:03.386Z,460.00
2023-02-21T03:18:03.358Z,461.00
2023-02-21T03:19:03.334Z,458.00
2023-02-21T03:20:03.326Z,460.00
2023-02-21T03:21:03.280Z,459.00
2023-02-21T03:22:03.257Z,459.00
2023-02-21T03:23:03.235Z,460.00
2023-02-21T03:24:03.168Z,461.00
2023-02-21T03:25:03.140Z,461.00
2023-02-21T03:26:03.103Z,458.00
2023-02-21T03:27:03.069Z,457.00
2023-02-21T03:28:03.040Z,458.00
2023-02-21T03:29:03.003Z,456.00
2023-02-21T03:30:03.139Z,456.00
2023-02-21T03:31:02.958Z,455.00
2023-02-21T03:32:02.948Z,453.00
2023-02-21T03:33:02.878Z,453.00
2023-02-21T03:34:02.837Z,454.00
2023-02-21T03:35:02.809Z,456.00
2023-02-21T03:36:02.810Z,457.00
2023-02-21T03:37:02.770Z,457.00
2023-02-21T03:38:02.727Z,455.00
2023-02-21T03:39:02.844Z,454.00
2023-02-21T03:40:02.683Z,454.00
2023-02-21T03:41:02.637Z,455.00
2023-02-21T03:42:02.648Z,453.00
2023-02-21T03:43:02.574Z,451.00
2023-02-21T03:44:02.549Z,451.00
2023-02-21T03:45:02.532Z,455.00
2023-02-21T03:46:02.502Z,453.00
2023-02-21T03:47:02.478Z,453.00
2023-02-21T03:48:02.442Z,451.00
2023-02-21T03:49:02.414Z,452.00
2023-02-21T03:50:02.384Z,454.00
2023-02-21T03:51:02.362Z,454.00
2023-02-21T03:52:02.352Z,452.00
2023-02-21T03:53:02.321Z,453.00
2023-02-21T03:54:02.288Z,451.00
2023-02-21T03:55:02.274Z,451.00
2023-02-21T03:56:02.256Z,452.00
2023-02-21T03:57:02.216Z,453.00
2023-02-21T03:58:02.193Z,452.00
2023-02-21T03:59:02.178Z,451.00
2023-02-21T04:00:02.124Z,450.00
2023-02-21T04:01:02.260Z,447.00
2023-02-21T04:02:02.154Z,446.00
2023-02-21T04:03:02.047Z,444.00
2023-02-21T04:04:02.036Z,443.00
2023-02-21T04:05:01.991Z,445.00
2023-02-21T04:06:01.959Z,445.00
2023-02-21T04:07:01.936Z,444.00
2023-02-21T04:08:01.895Z,442.00
2023-02-21T04:09:01.877Z,440.00
2023-02-21T04:10:01.826Z,444.00
2023-02-21T04:11:01.798Z,444.00
2023-02-21T04:12:01.763Z,446.00
2023-02-21T04:13:01.737Z,446.00
2023-02-21T04:14:01.705Z,447.00
2023-02-21T04:15:01.669Z,446.00
2023-02-21T04:16:01.661Z,446.00
2023-02-21T04:17:01.598Z,446.00
2023-02-21T04:18:01.567Z,447.00
2023-02-21T04:19:01.537Z,445.00
2023-02-21T04:20:01.516Z,444.00
2023-02-21T04:21:01.470Z,442.00
2023-02-21T04:22:01.436Z,444.00
2023-02-21T04:23:03.669Z,443.00
2023-02-21T04:24:01.416Z,440.00
2023-02-21T04:25:01.376Z,439.00
2023-02-21T04:26:01.344Z,440.00
2023-02-21T04:27:01.316Z,440.00
2023-02-21T04:28:01.282Z,440.00
2023-02-21T04:29:01.248Z,441.00
2023-02-21T04:30:01.215Z,440.00
2023-02-21T04:31:01.183Z,441.00
2023-02-21T04:32:01.312Z,441.00
2023-02-21T04:33:01.122Z,439.00
2023-02-21T04:34:11.311Z,439.00
2023-02-21T04:35:02.059Z,438.00
2023-02-21T04:36:01.020Z,439.00
2023-02-21T04:37:01.004Z,440.00
2023-02-21T04:38:00.962Z,439.00
2023-02-21T04:39:00.938Z,441.00
2023-02-21T04:40:00.904Z,441.00
2023-02-21T04:41:00.881Z,443.00
2023-02-21T04:42:00.857Z,442.00
2023-02-21T04:43:00.832Z,444.00
2023-02-21T04:44:00.799Z,444.00
2023-02-21T04:45:01.034Z,443.00
2023-02-21T04:46:00.782Z,441.00
2023-02-21T04:47:00.694Z,440.00
2023-02-21T04:48:00.668Z,439.00
2023-02-21T04:49:00.634Z,438.00
2023-02-21T04:50:00.605Z,438.00
2023-02-21T04:51:06.933Z,440.00
2023-02-21T04:52:01.581Z,438.00
2023-02-21T04:53:00.507Z,439.00
2023-02-21T04:54:00.460Z,440.00
2023-02-21T04:55:00.424Z,438.00
2023-02-21T04:56:00.393Z,439.00
2023-02-21T04:57:00.400Z,436.00
2023-02-21T04:58:00.316Z,436.00
2023-02-21T04:59:00.294Z,437.00
2023-02-21T05:00:00.260Z,437.00
2023-02-21T05:01:00.250Z,435.00
2023-02-21T05:02:02.675Z,436.00
2023-02-21T05:03:00.378Z,436.00
2023-02-21T05:04:00.484Z,436.00
2023-02-21T05:05:00.346Z,436.00
2023-02-21T05:06:00.271Z,434.00
2023-02-21T05:07:00.236Z,434.00
2023-02-21T05:08:00.205Z,434.00
2023-02-21T05:09:00.184Z,434.00
2023-02-21T05:10:00.144Z,435.00
2023-02-21T05:11:00.114Z,434.00
2023-02-21T05:12:00.128Z,433.00
2023-02-21T05:13:00.043Z,432.00
2023-02-21T05:14:00.009Z,431.00
2023-02-21T05:14:59.989Z,431.00
2023-02-21T05:15:59.948Z,429.00
2023-02-21T05:16:59.898Z,428.00
2023-02-21T05:17:59.895Z,428.00
2023-02-21T05:18:59.828Z,425.00
2023-02-21T05:19:59.784Z,428.00
2023-02-21T05:20:59.754Z,428.00
2023-02-21T05:21:59.713Z,426.00
2023-02-21T05:23:04.769Z,425.00
2023-02-21T05:24:00.638Z,426.00
2023-02-21T05:24:59.594Z,427.00
2023-02-21T05:25:59.562Z,427.00
2023-02-21T05:26:59.516Z,429.00
2023-02-21T05:27:59.485Z,429.00
2023-02-21T05:28:59.462Z,431.00
2023-02-21T05:29:59.417Z,430.00
2023-02-21T05:31:01.037Z,432.00
2023-02-21T05:31:59.365Z,432.00
2023-02-21T05:33:59.288Z,431.00
2023-02-21T05:34:59.271Z,429.00
2023-02-21T05:35:59.210Z,429.00
2023-02-21T05:36:59.181Z,427.00
2023-02-21T05:37:59.144Z,425.00
2023-02-21T05:38:59.130Z,425.00
2023-02-21T05:39:59.079Z,426.00
2023-02-21T05:40:59.056Z,427.00
2023-02-21T05:41:59.028Z,430.00
2023-02-21T05:42:58.994Z,431.00
2023-02-21T05:43:58.951Z,429.00
2023-02-21T05:44:58.913Z,428.00
2023-02-21T05:45:58.939Z,426.00
2023-02-21T05:46:58.836Z,428.00
2023-02-21T05:47:58.804Z,427.00
2023-02-21T05:48:58.793Z,426.00
2023-02-21T05:49:58.750Z,425.00
2023-02-21T05:50:58.699Z,424.00
2023-02-21T05:51:58.669Z,424.00
2023-02-21T05:52:58.636Z,426.00
2023-02-21T05:53:58.604Z,425.00
2023-02-21T05:54:58.576Z,424.00
2023-02-21T05:55:58.525Z,424.00
2023-02-21T05:56:58.477Z,424.00
2023-02-21T05:57:58.441Z,423.00
2023-02-21T05:58:58.405Z,426.00
2023-02-21T05:59:58.373Z,425.00
2023-02-21T06:00:58.318Z,427.00
2023-02-21T06:01:58.305Z,425.00
2023-02-21T06:02:58.238Z,424.00
2023-02-21T06:03:58.195Z,425.00
2023-02-21T06:04:58.154Z,427.00
2023-02-21T06:05:58.106Z,429.00
2023-02-21T06:06:58.057Z,426.00
2023-02-21T06:07:58.016Z,423.00
2023-02-21T06:08:57.978Z,422.00
2023-02-21T06:09:57.942Z,420.00
2023-02-21T06:10:57.889Z,419.00
2023-02-21T06:11:57.855Z,417.00
2023-02-21T06:12:57.808Z,417.00
2023-02-21T06:13:57.800Z,416.00
2023-02-21T06:14:57.743Z,416.00
2023-02-21T06:15:57.785Z,415.00
2023-02-21T06:16:57.677Z,417.00
2023-02-21T06:17:57.642Z,416.00
2023-02-21T06:18:57.609Z,414.00
2023-02-21T06:19:57.583Z,414.00
2023-02-21T06:20:57.532Z,412.00
2023-02-21T06:21:57.514Z,412.00
2023-02-21T06:22:57.506Z,411.00
2023-02-21T06:23:57.451Z,409.00
2023-02-21T06:24:57.418Z,411.00
2023-02-21T06:25:57.390Z,414.00
2023-02-21T06:26:57.348Z,413.00
2023-02-21T06:27:57.310Z,413.00
2023-02-21T06:28:57.309Z,411.00
2023-02-21T06:29:57.245Z,412.00
2023-02-21T06:30:57.247Z,414.00
2023-02-21T06:31:57.192Z,415.00
2023-02-21T06:32:57.131Z,420.00
2023-02-21T06:33:57.092Z,487.00
2023-02-21T06:34:57.061Z,484.00
2023-02-21T06:35:57.032Z,475.00
2023-02-21T06:36:56.997Z,470.00
2023-02-21T06:37:56.998Z,474.00
2023-02-21T06:38:56.967Z,478.00
2023-02-21T06:39:57.560Z,487.00
2023-02-21T06:40:56.931Z,526.00
2023-02-21T06:41:56.839Z,527.00
2023-02-21T06:42:56.823Z,549.00
2023-02-21T06:43:56.777Z,571.00
2023-02-21T06:44:56.739Z,631.00
2023-02-21T06:45:56.754Z,637.00
2023-02-21T06:46:56.673Z,648.00
2023-02-21T06:47:56.639Z,671.00
2023-02-21T06:48:56.613Z,697.00
2023-02-21T06:49:56.571Z,813.00
2023-02-21T06:50:56.522Z,815.00
2023-02-21T06:51:56.488Z,879.00
2023-02-21T06:52:56.628Z,879.00
2023-02-21T06:53:56.414Z,874.00
2023-02-21T06:54:56.393Z,860.00
2023-02-21T06:55:56.350Z,826.00
2023-02-21T06:56:56.281Z,827.00
2023-02-21T06:57:56.258Z,826.00
2023-02-21T06:58:56.185Z,829.00
2023-02-21T06:59:56.152Z,827.00
2023-02-21T07:00:58.339Z,827.00
2023-02-21T07:01:56.133Z,826.00
2023-02-21T07:02:56.031Z,822.00
2023-02-21T07:03:55.996Z,818.00
2023-02-21T07:04:56.051Z,816.00
2023-02-21T07:05:55.895Z,811.00
2023-02-21T07:06:55.848Z,811.00
2023-02-21T07:07:55.796Z,811.00
2023-02-21T07:08:55.755Z,810.00
2023-02-21T07:09:55.736Z,806.00
2023-02-21T07:10:55.687Z,803.00
2023-02-21T07:11:55.694Z,799.00
2023-02-21T07:12:55.634Z,798.00
2023-02-21T07:13:55.569Z,799.00
2023-02-21T07:14:55.524Z,798.00
2023-02-21T07:15:55.823Z,797.00
2023-02-21T07:16:55.424Z,795.00
2023-02-21T07:17:55.425Z,791.00
2023-02-21T07:18:55.403Z,788.00
2023-02-21T07:19:55.304Z,783.00
2023-02-21T07:20:55.258Z,785.00
2023-02-21T07:21:55.230Z,785.00
2023-02-21T07:22:55.193Z,780.00
2023-02-21T07:23:55.153Z,777.00
2023-02-21T07:24:55.101Z,772.00
2023-02-21T07:25:55.069Z,772.00
2023-02-21T07:26:55.029Z,772.00
2023-02-21T07:27:54.989Z,770.00
2023-02-21T07:28:54.992Z,771.00
2023-02-21T07:29:54.889Z,770.00
2023-02-21T07:30:54.904Z,769.00
2023-02-21T07:31:54.973Z,769.00
2023-02-21T07:32:54.759Z,766.00
2023-02-21T07:33:54.729Z,768.00
2023-02-21T07:34:54.666Z,767.00
2023-02-21T07:35:54.626Z,763.00
2023-02-21T07:36:54.668Z,763.00
2023-02-21T07:37:54.540Z,761.00
2023-02-21T07:38:54.496Z,762.00
2023-02-21T07:39:54.460Z,759.00
2023-02-21T07:40:54.432Z,756.00
2023-02-21T07:41:54.400Z,758.00
2023-02-21T07:42:54.344Z,758.00
2023-02-21T07:43:54.332Z,763.00
2023-02-21T07:44:54.308Z,790.00
2023-02-21T07:45:54.270Z,816.00
2023-02-21T07:46:54.188Z,862.00
2023-02-21T07:47:54.143Z,875.00
2023-02-21T07:48:54.148Z,889.00
2023-02-21T07:49:54.118Z,915.00
2023-02-21T07:50:54.029Z,939.00
2023-02-21T07:51:53.985Z,964.00
2023-02-21T07:52:53.953Z,1012.00
2023-02-21T07:53:54.177Z,1007.00
2023-02-21T07:54:53.847Z,1019.00
2023-02-21T07:55:53.778Z,1036.00
2023-02-21T07:56:53.745Z,1053.00
2023-02-21T07:57:53.708Z,1063.00
2023-02-21T07:58:53.663Z,1081.00
2023-02-21T07:59:53.606Z,1105.00
2023-02-21T08:00:53.561Z,1110.00
2023-02-21T08:01:53.568Z,1127.00
2023-02-21T08:02:53.476Z,1148.00
2023-02-21T08:03:53.464Z,1164.00
2023-02-21T08:04:53.425Z,1166.00
2023-02-21T08:05:53.328Z,1173.00
2023-02-21T08:06:53.293Z,1205.00
2023-02-21T08:07:53.238Z,1217.00
2023-02-21T08:08:53.181Z,1228.00
2023-02-21T08:09:53.135Z,1242.00
2023-02-21T08:10:53.092Z,1260.00
2023-02-21T08:11:53.026Z,1273.00
2023-02-21T08:12:52.999Z,1326.00
2023-02-21T08:13:52.931Z,1345.00
2023-02-21T08:14:52.880Z,1357.00
2023-02-21T08:15:52.886Z,1361.00
2023-02-21T08:16:52.802Z,1369.00
2023-02-21T08:17:52.744Z,1374.00
2023-02-21T08:18:52.679Z,1387.00
2023-02-21T08:19:52.635Z,1400.00
2023-02-21T08:20:52.630Z,1412.00
2023-02-21T08:21:52.534Z,1420.00
2023-02-21T08:22:52.498Z,1425.00
2023-02-21T08:23:52.451Z,1443.00
2023-02-21T08:24:52.389Z,1461.00
2023-02-21T08:25:52.349Z,1477.00
2023-02-21T08:26:52.296Z,1476.00
2023-02-21T08:27:52.266Z,1499.00
2023-02-21T08:28:52.196Z,1514.00
2023-02-21T08:29:52.198Z,1525.00
2023-02-21T08:30:52.121Z,1554.00
2023-02-21T08:31:52.244Z,1570.00
2023-02-21T08:32:52.006Z,1582.00
2023-02-21T08:33:51.969Z,1597.00
2023-02-21T08:34:51.924Z,1604.00
2023-02-21T08:35:51.868Z,1605.00
2023-02-21T08:36:51.831Z,1603.00
2023-02-21T08:37:51.805Z,1634.00
2023-02-21T08:38:51.737Z,1601.00
2023-02-21T08:39:52.525Z,1051.00
2023-02-21T08:40:51.656Z,946.00
2023-02-21T08:41:51.589Z,938.00
2023-02-21T08:42:51.540Z,858.00
2023-02-21T08:43:51.493Z,672.00
2023-02-21T08:44:51.461Z,643.00
2023-02-21T08:45:51.408Z,592.00
2023-02-21T08:46:51.417Z,590.00
2023-02-21T08:47:51.333Z,573.00
2023-02-21T08:48:51.282Z,560.00
2023-02-21T08:49:51.248Z,557.00
2023-02-21T08:50:51.202Z,554.00
2023-02-21T08:51:51.169Z,554.00
2023-02-21T08:52:51.147Z,550.00
2023-02-21T08:53:51.119Z,547.00
2023-02-21T08:54:51.148Z,535.00
2023-02-21T08:55:51.049Z,524.00
2023-02-21T08:56:51.018Z,524.00
2023-02-21T08:57:51.004Z,532.00
2023-02-21T08:58:50.982Z,533.00
2023-02-21T08:59:50.936Z,532.00
2023-02-21T09:00:50.959Z,532.00
2023-02-21T09:01:50.906Z,526.00
2023-02-21T09:02:50.882Z,512.00
2023-02-21T09:03:50.833Z,508.00
2023-02-21T09:04:50.794Z,502.00
2023-02-21T09:05:50.757Z,506.00
2023-02-21T09:06:50.726Z,504.00
2023-02-21T09:07:50.707Z,498.00
2023-02-21T09:08:50.666Z,496.00
2023-02-21T09:09:50.657Z,495.00
2023-02-21T09:10:50.626Z,491.00
2023-02-21T09:11:50.585Z,534.00
2023-02-21T09:12:50.573Z,532.00
2023-02-21T09:13:50.522Z,514.00
2023-02-21T09:14:50.491Z,511.00
2023-02-21T09:15:50.466Z,508.00
2023-02-21T09:16:50.498Z,504.00
2023-02-21T09:17:50.402Z,504.00
2023-02-21T09:18:50.392Z,612.00
2023-02-21T09:19:50.365Z,596.00
2023-02-21T09:20:50.345Z,526.00
2023-02-21T09:21:50.366Z,525.00
2023-02-21T09:22:50.270Z,508.00
2023-02-21T09:23:50.270Z,618.00
2023-02-21T09:24:50.229Z,524.00
2023-02-21T09:25:50.195Z,528.00
2023-02-21T09:26:50.177Z,527.00
2023-02-21T09:27:51.539Z,547.00
2023-02-21T09:28:50.138Z,577.00
2023-02-21T09:29:50.105Z,643.00
2023-02-21T09:30:50.084Z,653.00
2023-02-21T09:31:50.084Z,739.00
2023-02-21T09:32:50.044Z,753.00
2023-02-21T09:33:50.078Z,749.00
2023-02-21T09:34:50.022Z,753.00
2023-02-21T09:35:49.992Z,761.00
2023-02-21T09:36:49.953Z,766.00
2023-02-21T09:37:49.999Z,770.00
2023-02-21T09:38:49.890Z,777.00
2023-02-21T09:39:49.848Z,778.00
2023-02-21T09:40:49.816Z,779.00
2023-02-21T09:41:49.794Z,781.00
2023-02-21T09:42:49.768Z,781.00
2023-02-21T09:43:49.732Z,784.00
2023-02-21T09:44:49.694Z,784.00
2023-02-21T09:45:49.710Z,783.00
2023-02-21T09:46:49.625Z,784.00
2023-02-21T09:47:49.637Z,783.00
2023-02-21T09:48:49.575Z,788.00
2023-02-21T09:49:49.541Z,829.00
2023-02-21T09:50:49.499Z,874.00
2023-02-21T09:51:49.434Z,884.00
2023-02-21T09:52:49.398Z,932.00
2023-02-21T09:53:49.406Z,964.00
2023-02-21T09:54:49.325Z,1042.00
2023-02-21T09:55:49.275Z,1057.00
2023-02-21T09:56:49.219Z,1089.00
2023-02-21T09:57:49.187Z,1110.00
2023-02-21T09:58:49.136Z,1131.00
2023-02-21T09:59:49.095Z,1148.00
2023-02-21T10:00:49.096Z,1199.00
2023-02-21T10:01:48.991Z,1213.00
2023-02-21T10:02:48.962Z,1237.00
2023-02-21T10:03:48.898Z,1277.00
2023-02-21T10:04:48.961Z,1295.00
2023-02-21T10:05:48.808Z,1317.00
2023-02-21T10:06:48.776Z,1346.00
2023-02-21T10:07:48.718Z,1357.00
2023-02-21T10:08:48.670Z,1388.00
2023-02-21T10:09:49.049Z,1404.00
2023-02-21T10:10:48.563Z,1461.00
2023-02-21T10:11:48.522Z,1462.00
2023-02-21T10:12:48.527Z,1470.00
2023-02-21T10:13:48.398Z,1490.00
2023-02-21T10:14:48.368Z,1500.00
2023-02-21T10:15:48.319Z,1534.00
2023-02-21T10:16:48.283Z,1555.00
2023-02-21T10:17:48.223Z,1576.00
2023-02-21T10:18:48.197Z,1598.00
2023-02-21T10:19:48.131Z,1619.00
2023-02-21T10:20:48.102Z,1643.00
2023-02-21T10:21:48.035Z,1661.00
2023-02-21T10:22:48.034Z,1668.00
2023-02-21T10:23:47.927Z,1695.00
2023-02-21T10:24:47.881Z,1726.00
2023-02-21T10:25:47.833Z,1724.00
2023-02-21T10:26:47.832Z,1745.00
2023-02-21T10:27:47.712Z,1765.00
2023-02-21T10:28:47.667Z,1788.00
2023-02-21T10:29:47.624Z,1822.00
2023-02-21T10:30:47.648Z,1830.00
2023-02-21T10:31:47.651Z,1836.00
2023-02-21T10:32:47.456Z,1841.00
2023-02-21T10:33:47.442Z,1848.00
2023-02-21T10:34:47.494Z,1866.00
2023-02-21T10:35:47.301Z,1887.00
2023-02-21T10:36:47.245Z,1923.00
2023-02-21T10:37:47.230Z,1942.00
2023-02-21T10:38:47.138Z,1968.00
2023-02-21T10:39:47.078Z,1971.00
2023-02-21T10:40:47.044Z,1965.00
2023-02-21T10:41:46.974Z,1962.00
2023-02-21T10:42:46.901Z,1819.00
2023-02-21T10:43:46.845Z,1770.00
2023-02-21T10:44:46.818Z,1801.00
2023-02-21T10:45:47.150Z,1876.00
2023-02-21T10:46:46.688Z,1917.00
2023-02-21T10:47:46.638Z,1941.00
2023-02-21T10:48:46.606Z,2006.00
2023-02-21T10:49:46.580Z,2022.00
2023-02-21T10:50:46.479Z,2052.00
2023-02-21T10:51:46.410Z,2081.00
2023-02-21T10:52:46.422Z,2092.00
2023-02-21T10:53:46.321Z,2098.00
2023-02-21T10:54:46.252Z,2124.00
2023-02-21T10:55:46.209Z,2133.00
2023-02-21T10:56:46.138Z,2146.00
2023-02-21T10:57:46.081Z,2161.00
2023-02-21T10:58:46.038Z,2173.00
2023-02-21T10:59:46.089Z,2181.00
2023-02-21T11:00:45.933Z,2191.00
2023-02-21T11:01:45.952Z,2201.00
2023-02-21T11:02:45.940Z,2213.00
2023-02-21T11:03:45.966Z,2225.00
2023-02-21T11:04:45.737Z,2248.00
2023-02-21T11:05:45.713Z,2266.00
2023-02-21T11:06:45.859Z,2273.00
2023-02-21T11:07:45.629Z,2280.00
2023-02-21T11:08:45.592Z,2294.00
2023-02-21T11:09:45.585Z,2309.00
2023-02-21T11:10:45.427Z,2330.00
2023-02-21T11:11:45.356Z,2350.00
2023-02-21T11:12:45.291Z,2352.00
2023-02-21T11:13:45.269Z,2361.00
2023-02-21T11:14:45.192Z,2364.00
2023-02-21T11:15:45.187Z,2371.00
2023-02-21T11:16:45.053Z,2381.00
2023-02-21T11:17:44.969Z,2392.00
2023-02-21T11:18:44.914Z,2415.00
2023-02-21T11:19:44.875Z,2435.00
2023-02-21T11:20:44.808Z,2444.00
2023-02-21T11:48:43.262Z,1709.00
2023-02-21T12:01:42.582Z,1410.00
2023-02-21T12:02:42.549Z,1419.00
2023-02-21T12:03:42.449Z,1307.00
2023-02-21T12:04:42.678Z,1431.00
2023-02-21T12:05:42.364Z,1354.00
2023-02-21T12:06:42.337Z,1347.00
2023-02-21T12:07:42.253Z,1341.00
2023-02-21T12:08:42.198Z,1321.00
2023-02-21T12:09:42.160Z,1332.00
2023-02-21T12:10:42.105Z,1352.00
2023-02-21T12:11:42.057Z,1369.00
2023-02-21T12:12:42.020Z,1404.00
2023-02-21T12:13:41.967Z,1452.00
2023-02-21T12:14:41.900Z,1455.00
2023-02-21T12:15:41.880Z,1489.00
2023-02-21T12:16:41.801Z,1525.00
2023-02-21T12:17:41.740Z,1551.00
2023-02-21T12:18:41.692Z,1569.00
2023-02-21T12:19:41.642Z,1591.00
2023-02-21T12:20:41.590Z,1608.00
2023-02-21T12:21:41.526Z,1626.00
2023-02-21T12:22:42.682Z,1647.00
2023-02-21T12:23:41.436Z,1678.00
2023-02-21T12:24:41.404Z,1693.00
2023-02-21T12:25:41.290Z,1726.00
2023-02-21T12:26:41.218Z,1734.00
2023-02-21T12:27:41.342Z,1764.00
2023-02-21T12:28:41.138Z,1770.00
2023-02-21T12:29:41.063Z,1777.00
2023-02-21T12:30:41.068Z,1777.00
2023-02-21T12:31:41.032Z,1724.00
2023-02-21T12:32:40.890Z,1730.00
2023-02-21T12:33:40.825Z,1641.00
2023-02-21T12:34:40.807Z,1632.00
2023-02-21T12:35:45.255Z,1634.00
2023-02-21T12:36:40.666Z,1635.00
2023-02-21T12:37:40.617Z,1623.00
2023-02-21T12:38:40.552Z,1605.00
2023-02-21T12:39:40.495Z,1568.00
2023-02-21T12:40:40.469Z,1526.00
2023-02-21T12:41:40.396Z,1513.00
2023-02-21T12:42:40.363Z,1500.00
2023-02-21T12:43:40.307Z,1489.00
2023-02-21T12:44:40.263Z,1478.00
2023-02-21T12:45:40.185Z,1465.00
2023-02-21T12:46:40.199Z,1448.00
2023-02-21T12:47:40.079Z,1437.00
2023-02-21T12:48:40.042Z,1417.00
2023-02-21T12:49:39.964Z,1399.00
2023-02-21T12:50:39.907Z,1393.00
2023-02-21T12:51:39.865Z,1384.00
2023-02-21T12:52:39.807Z,1359.00
2023-02-21T12:53:39.746Z,1348.00
2023-02-21T12:54:39.686Z,1342.00
2023-02-21T12:55:40.462Z,1327.00
2023-02-21T12:56:39.686Z,1322.00
2023-02-21T12:57:39.550Z,1309.00
2023-02-21T12:58:39.512Z,1303.00
2023-02-21T12:59:39.470Z,1302.00
2023-02-21T13:00:39.403Z,1295.00
2023-02-21T13:01:39.376Z,1284.00